sensor_id;sensor_type;location;lat;lon;timestamp;P1;durP1;ratioP1;P2;durP2;ratioP2
34783;SDS011;20998;51.388;7.032;2023-06-22T00:00:57;5.80;;;2.90;;
34783;SDS011;20998;51.388;7.032;2023-06-22T00:03:23;4.47;;;2.57;;
34783;SDS011;20998;51.388;7.032;2023-06-22T00:05:50;4.17;;;2.30;;
34783;SDS011;20998;51.388;7.032;2023-06-22T00:08:16;3.17;;;2.33;;
34783;SDS011;20998;51.388;7.032;2023-06-22T00:10:43;3.20;;;2.17;;
34783;SDS011;20998;51.388;7.032;2023-06-22T00:13:09;3.80;;;2.60;;
34783;SDS011;20998;51.388;7.032;2023-06-22T00:15:36;4.23;;;2.93;;
34783;SDS011;20998;51.388;7.032;2023-06-22T00:18:02;3.10;;;2.67;;
34783;SDS011;20998;51.388;7.032;2023-06-22T00:20:29;4.40;;;3.17;;
34783;SDS011;20998;51.388;7.032;2023-06-22T00:22:55;6.63;;;2.80;;
34783;SDS011;20998;51.388;7.032;2023-06-22T00:25:21;3.80;;;2.67;;
34783;SDS011;20998;51.388;7.032;2023-06-22T00:27:47;4.20;;;3.10;;
34783;SDS011;20998;51.388;7.032;2023-06-22T00:30:14;6.53;;;3.00;;
34783;SDS011;20998;51.388;7.032;2023-06-22T00:32:41;5.17;;;3.60;;
34783;SDS011;20998;51.388;7.032;2023-06-22T00:35:07;8.80;;;3.63;;
34783;SDS011;20998;51.388;7.032;2023-06-22T00:37:33;5.90;;;2.97;;
34783;SDS011;20998;51.388;7.032;2023-06-22T00:40:00;4.33;;;3.23;;
34783;SDS011;20998;51.388;7.032;2023-06-22T00:42:26;5.07;;;3.50;;
34783;SDS011;20998;51.388;7.032;2023-06-22T00:44:52;6.50;;;3.93;;
34783;SDS011;20998;51.388;7.032;2023-06-22T00:47:18;12.80;;;4.30;;
34783;SDS011;20998;51.388;7.032;2023-06-22T00:49:44;8.77;;;4.40;;
34783;SDS011;20998;51.388;7.032;2023-06-22T00:52:11;4.70;;;3.40;;
34783;SDS011;20998;51.388;7.032;2023-06-22T00:54:46;5.83;;;3.43;;
34783;SDS011;20998;51.388;7.032;2023-06-22T00:57:13;6.27;;;3.80;;
34783;SDS011;20998;51.388;7.032;2023-06-22T00:59:43;4.90;;;3.33;;
34783;SDS011;20998;51.388;7.032;2023-06-22T01:02:10;4.77;;;3.83;;
34783;SDS011;20998;51.388;7.032;2023-06-22T01:04:36;7.97;;;4.00;;
34783;SDS011;20998;51.388;7.032;2023-06-22T01:07:13;9.13;;;4.23;;
34783;SDS011;20998;51.388;7.032;2023-06-22T01:09:49;8.00;;;3.83;;
34783;SDS011;20998;51.388;7.032;2023-06-22T01:12:24;6.13;;;4.03;;
34783;SDS011;20998;51.388;7.032;2023-06-22T01:15:08;9.40;;;4.20;;
34783;SDS011;20998;51.388;7.032;2023-06-22T01:17:35;9.07;;;3.90;;
34783;SDS011;20998;51.388;7.032;2023-06-22T01:20:04;6.13;;;4.70;;
34783;SDS011;20998;51.388;7.032;2023-06-22T01:22:36;7.60;;;4.70;;
34783;SDS011;20998;51.388;7.032;2023-06-22T01:25:31;6.23;;;4.60;;
34783;SDS011;20998;51.388;7.032;2023-06-22T01:30:45;10.83;;;5.50;;
34783;SDS011;20998;51.388;7.032;2023-06-22T01:33:13;10.07;;;4.70;;
34783;SDS011;20998;51.388;7.032;2023-06-22T01:35:39;7.33;;;5.00;;
34783;SDS011;20998;51.388;7.032;2023-06-22T01:38:05;7.37;;;5.13;;
34783;SDS011;20998;51.388;7.032;2023-06-22T01:40:33;8.60;;;5.23;;
34783;SDS011;20998;51.388;7.032;2023-06-22T01:43:00;9.07;;;5.27;;
34783;SDS011;20998;51.388;7.032;2023-06-22T01:45:27;8.13;;;5.00;;
34783;SDS011;20998;51.388;7.032;2023-06-22T01:47:53;7.07;;;5.30;;
34783;SDS011;20998;51.388;7.032;2023-06-22T01:50:20;8.67;;;5.33;;
34783;SDS011;20998;51.388;7.032;2023-06-22T01:52:46;6.70;;;4.87;;
34783;SDS011;20998;51.388;7.032;2023-06-22T01:55:12;6.70;;;5.30;;
34783;SDS011;20998;51.388;7.032;2023-06-22T01:57:38;9.17;;;5.97;;
34783;SDS011;20998;51.388;7.032;2023-06-22T02:00:05;9.73;;;5.57;;
34783;SDS011;20998;51.388;7.032;2023-06-22T02:02:40;11.17;;;6.20;;
34783;SDS011;20998;51.388;7.032;2023-06-22T02:05:14;7.30;;;5.43;;
34783;SDS011;20998;51.388;7.032;2023-06-22T02:07:44;10.57;;;6.07;;
34783;SDS011;20998;51.388;7.032;2023-06-22T02:10:15;9.73;;;6.00;;
34783;SDS011;20998;51.388;7.032;2023-06-22T02:12:44;9.07;;;5.37;;
34783;SDS011;20998;51.388;7.032;2023-06-22T02:15:11;6.47;;;4.77;;
34783;SDS011;20998;51.388;7.032;2023-06-22T02:17:37;8.73;;;5.47;;
34783;SDS011;20998;51.388;7.032;2023-06-22T02:20:04;10.10;;;5.27;;
34783;SDS011;20998;51.388;7.032;2023-06-22T02:22:33;10.13;;;5.13;;
34783;SDS011;20998;51.388;7.032;2023-06-22T02:24:59;8.23;;;4.63;;
34783;SDS011;20998;51.388;7.032;2023-06-22T02:27:25;6.67;;;4.97;;
34783;SDS011;20998;51.388;7.032;2023-06-22T02:29:51;8.33;;;5.53;;
34783;SDS011;20998;51.388;7.032;2023-06-22T02:32:17;9.67;;;6.07;;
34783;SDS011;20998;51.388;7.032;2023-06-22T02:34:43;11.33;;;6.10;;
34783;SDS011;20998;51.388;7.032;2023-06-22T02:37:12;7.83;;;5.50;;
34783;SDS011;20998;51.388;7.032;2023-06-22T02:39:39;8.47;;;5.47;;
34783;SDS011;20998;51.388;7.032;2023-06-22T02:42:05;9.97;;;5.70;;
34783;SDS011;20998;51.388;7.032;2023-06-22T02:44:31;8.03;;;4.80;;
34783;SDS011;20998;51.388;7.032;2023-06-22T02:46:58;10.80;;;5.57;;
34783;SDS011;20998;51.388;7.032;2023-06-22T02:49:24;8.07;;;5.07;;
34783;SDS011;20998;51.388;7.032;2023-06-22T02:51:50;6.30;;;4.90;;
34783;SDS011;20998;51.388;7.032;2023-06-22T02:54:16;7.40;;;4.70;;
34783;SDS011;20998;51.388;7.032;2023-06-22T02:56:42;5.53;;;4.63;;
34783;SDS011;20998;51.388;7.032;2023-06-22T02:59:09;8.87;;;5.13;;
34783;SDS011;20998;51.388;7.032;2023-06-22T03:01:36;6.03;;;4.73;;
34783;SDS011;20998;51.388;7.032;2023-06-22T03:04:07;5.70;;;4.57;;
34783;SDS011;20998;51.388;7.032;2023-06-22T03:06:34;6.87;;;4.90;;
34783;SDS011;20998;51.388;7.032;2023-06-22T03:09:00;9.10;;;4.73;;
34783;SDS011;20998;51.388;7.032;2023-06-22T03:11:33;8.70;;;5.10;;
34783;SDS011;20998;51.388;7.032;2023-06-22T03:13:59;9.93;;;5.27;;
34783;SDS011;20998;51.388;7.032;2023-06-22T03:16:25;6.63;;;5.40;;
34783;SDS011;20998;51.388;7.032;2023-06-22T03:18:51;7.60;;;5.03;;
34783;SDS011;20998;51.388;7.032;2023-06-22T03:21:18;7.70;;;5.60;;
34783;SDS011;20998;51.388;7.032;2023-06-22T03:23:44;12.63;;;5.63;;
34783;SDS011;20998;51.388;7.032;2023-06-22T03:26:10;5.93;;;4.80;;
34783;SDS011;20998;51.388;7.032;2023-06-22T03:28:37;8.60;;;6.67;;
34783;SDS011;20998;51.388;7.032;2023-06-22T03:31:03;8.33;;;6.00;;
34783;SDS011;20998;51.388;7.032;2023-06-22T03:33:29;8.97;;;5.97;;
34783;SDS011;20998;51.388;7.032;2023-06-22T03:35:55;10.20;;;6.40;;
34783;SDS011;20998;51.388;7.032;2023-06-22T03:38:21;10.00;;;5.80;;
34783;SDS011;20998;51.388;7.032;2023-06-22T03:40:47;10.03;;;6.43;;
34783;SDS011;20998;51.388;7.032;2023-06-22T03:43:13;8.57;;;5.13;;
34783;SDS011;20998;51.388;7.032;2023-06-22T03:45:39;9.77;;;6.50;;
34783;SDS011;20998;51.388;7.032;2023-06-22T03:48:05;12.73;;;6.83;;
34783;SDS011;20998;51.388;7.032;2023-06-22T03:50:31;10.93;;;7.10;;
34783;SDS011;20998;51.388;7.032;2023-06-22T03:52:57;12.47;;;7.83;;
34783;SDS011;20998;51.388;7.032;2023-06-22T03:55:23;11.57;;;7.80;;
34783;SDS011;20998;51.388;7.032;2023-06-22T03:57:49;11.37;;;7.57;;
34783;SDS011;20998;51.388;7.032;2023-06-22T04:00:14;12.73;;;8.20;;
34783;SDS011;20998;51.388;7.032;2023-06-22T04:02:41;11.47;;;8.37;;
34783;SDS011;20998;51.388;7.032;2023-06-22T04:05:08;13.73;;;8.90;;
34783;SDS011;20998;51.388;7.032;2023-06-22T04:07:34;17.43;;;9.57;;
34783;SDS011;20998;51.388;7.032;2023-06-22T04:10:02;13.60;;;9.87;;
34783;SDS011;20998;51.388;7.032;2023-06-22T04:12:28;13.23;;;9.03;;
34783;SDS011;20998;51.388;7.032;2023-06-22T04:14:54;14.83;;;8.70;;
34783;SDS011;20998;51.388;7.032;2023-06-22T04:17:19;11.87;;;8.47;;
34783;SDS011;20998;51.388;7.032;2023-06-22T04:19:45;13.40;;;8.43;;
34783;SDS011;20998;51.388;7.032;2023-06-22T04:22:11;11.63;;;7.67;;
34783;SDS011;20998;51.388;7.032;2023-06-22T04:24:37;12.50;;;7.67;;
34783;SDS011;20998;51.388;7.032;2023-06-22T04:27:04;14.17;;;6.77;;
34783;SDS011;20998;51.388;7.032;2023-06-22T04:29:30;12.47;;;6.77;;
34783;SDS011;20998;51.388;7.032;2023-06-22T04:31:56;10.13;;;6.80;;
34783;SDS011;20998;51.388;7.032;2023-06-22T04:34:28;11.73;;;7.43;;
34783;SDS011;20998;51.388;7.032;2023-06-22T04:36:54;12.20;;;7.80;;
34783;SDS011;20998;51.388;7.032;2023-06-22T04:39:20;12.93;;;7.63;;
34783;SDS011;20998;51.388;7.032;2023-06-22T04:41:47;12.23;;;7.80;;
34783;SDS011;20998;51.388;7.032;2023-06-22T04:44:13;12.43;;;8.13;;
34783;SDS011;20998;51.388;7.032;2023-06-22T04:46:48;18.60;;;8.83;;
34783;SDS011;20998;51.388;7.032;2023-06-22T04:49:19;13.67;;;9.57;;
34783;SDS011;20998;51.388;7.032;2023-06-22T04:51:47;16.20;;;9.97;;
34783;SDS011;20998;51.388;7.032;2023-06-22T04:54:13;15.03;;;8.90;;
34783;SDS011;20998;51.388;7.032;2023-06-22T04:56:39;11.30;;;8.63;;
34783;SDS011;20998;51.388;7.032;2023-06-22T04:59:06;16.23;;;9.83;;
34783;SDS011;20998;51.388;7.032;2023-06-22T05:01:32;14.87;;;9.83;;
34783;SDS011;20998;51.388;7.032;2023-06-22T05:03:59;13.43;;;10.10;;
34783;SDS011;20998;51.388;7.032;2023-06-22T05:06:27;16.40;;;9.33;;
34783;SDS011;20998;51.388;7.032;2023-06-22T05:08:54;14.23;;;10.20;;
34783;SDS011;20998;51.388;7.032;2023-06-22T05:11:26;17.73;;;10.70;;
34783;SDS011;20998;51.388;7.032;2023-06-22T05:13:53;15.47;;;9.27;;
34783;SDS011;20998;51.388;7.032;2023-06-22T05:16:19;13.93;;;9.63;;
34783;SDS011;20998;51.388;7.032;2023-06-22T05:18:51;15.87;;;9.20;;
34783;SDS011;20998;51.388;7.032;2023-06-22T05:21:21;15.30;;;10.27;;
34783;SDS011;20998;51.388;7.032;2023-06-22T05:23:48;13.63;;;9.77;;
34783;SDS011;20998;51.388;7.032;2023-06-22T05:26:14;14.37;;;8.73;;
34783;SDS011;20998;51.388;7.032;2023-06-22T05:28:40;16.73;;;9.17;;
34783;SDS011;20998;51.388;7.032;2023-06-22T05:31:06;14.97;;;9.17;;
34783;SDS011;20998;51.388;7.032;2023-06-22T05:33:32;12.23;;;9.00;;
34783;SDS011;20998;51.388;7.032;2023-06-22T05:35:58;14.27;;;9.20;;
34783;SDS011;20998;51.388;7.032;2023-06-22T05:38:24;12.47;;;8.67;;
34783;SDS011;20998;51.388;7.032;2023-06-22T05:40:50;11.73;;;8.80;;
34783;SDS011;20998;51.388;7.032;2023-06-22T05:43:16;14.07;;;9.00;;
34783;SDS011;20998;51.388;7.032;2023-06-22T05:45:42;19.40;;;9.90;;
34783;SDS011;20998;51.388;7.032;2023-06-22T05:48:08;15.13;;;9.53;;
34783;SDS011;20998;51.388;7.032;2023-06-22T05:50:34;13.47;;;8.97;;
34783;SDS011;20998;51.388;7.032;2023-06-22T05:53:00;13.83;;;9.10;;
34783;SDS011;20998;51.388;7.032;2023-06-22T05:55:26;14.47;;;8.87;;
34783;SDS011;20998;51.388;7.032;2023-06-22T05:57:52;15.50;;;10.30;;
34783;SDS011;20998;51.388;7.032;2023-06-22T06:00:18;14.57;;;9.33;;
34783;SDS011;20998;51.388;7.032;2023-06-22T06:02:44;13.93;;;9.13;;
34783;SDS011;20998;51.388;7.032;2023-06-22T06:05:13;14.30;;;9.80;;
34783;SDS011;20998;51.388;7.032;2023-06-22T06:07:40;14.73;;;10.10;;
34783;SDS011;20998;51.388;7.032;2023-06-22T06:10:06;13.40;;;9.17;;
34783;SDS011;20998;51.388;7.032;2023-06-22T06:12:32;16.07;;;8.97;;
34783;SDS011;20998;51.388;7.032;2023-06-22T06:14:58;14.63;;;8.83;;
34783;SDS011;20998;51.388;7.032;2023-06-22T06:17:24;10.93;;;8.67;;
34783;SDS011;20998;51.388;7.032;2023-06-22T06:19:50;11.73;;;9.00;;
34783;SDS011;20998;51.388;7.032;2023-06-22T06:22:16;12.47;;;9.03;;
34783;SDS011;20998;51.388;7.032;2023-06-22T06:24:43;13.70;;;9.77;;
34783;SDS011;20998;51.388;7.032;2023-06-22T06:27:09;20.13;;;10.23;;
34783;SDS011;20998;51.388;7.032;2023-06-22T06:29:35;16.03;;;10.53;;
34783;SDS011;20998;51.388;7.032;2023-06-22T06:32:01;16.10;;;9.80;;
34783;SDS011;20998;51.388;7.032;2023-06-22T06:34:26;15.50;;;10.37;;
34783;SDS011;20998;51.388;7.032;2023-06-22T06:36:52;16.63;;;9.80;;
34783;SDS011;20998;51.388;7.032;2023-06-22T06:39:18;17.60;;;9.67;;
34783;SDS011;20998;51.388;7.032;2023-06-22T06:41:45;14.80;;;9.00;;
34783;SDS011;20998;51.388;7.032;2023-06-22T06:44:11;14.53;;;9.87;;
34783;SDS011;20998;51.388;7.032;2023-06-22T06:46:37;16.60;;;9.57;;
34783;SDS011;20998;51.388;7.032;2023-06-22T06:49:03;16.17;;;9.47;;
34783;SDS011;20998;51.388;7.032;2023-06-22T06:51:29;14.07;;;9.33;;
34783;SDS011;20998;51.388;7.032;2023-06-22T06:53:55;14.67;;;9.93;;
34783;SDS011;20998;51.388;7.032;2023-06-22T06:56:21;18.87;;;10.17;;
34783;SDS011;20998;51.388;7.032;2023-06-22T06:58:49;16.37;;;10.13;;
34783;SDS011;20998;51.388;7.032;2023-06-22T07:01:15;12.30;;;9.33;;
34783;SDS011;20998;51.388;7.032;2023-06-22T07:03:41;15.07;;;9.67;;
34783;SDS011;20998;51.388;7.032;2023-06-22T07:06:08;17.13;;;10.07;;
34783;SDS011;20998;51.388;7.032;2023-06-22T07:08:33;21.90;;;9.50;;
34783;SDS011;20998;51.388;7.032;2023-06-22T07:11:01;17.73;;;9.50;;
34783;SDS011;20998;51.388;7.032;2023-06-22T07:13:27;12.80;;;9.70;;
34783;SDS011;20998;51.388;7.032;2023-06-22T07:15:53;17.27;;;10.40;;
34783;SDS011;20998;51.388;7.032;2023-06-22T07:18:19;19.10;;;9.03;;
34783;SDS011;20998;51.388;7.032;2023-06-22T07:20:45;12.57;;;9.43;;
34783;SDS011;20998;51.388;7.032;2023-06-22T07:23:12;25.87;;;10.30;;
34783;SDS011;20998;51.388;7.032;2023-06-22T07:25:38;13.37;;;9.77;;
34783;SDS011;20998;51.388;7.032;2023-06-22T07:28:04;19.90;;;10.80;;
34783;SDS011;20998;51.388;7.032;2023-06-22T07:30:31;23.63;;;12.10;;
34783;SDS011;20998;51.388;7.032;2023-06-22T07:32:58;14.83;;;11.03;;
34783;SDS011;20998;51.388;7.032;2023-06-22T07:35:29;17.40;;;10.73;;
34783;SDS011;20998;51.388;7.032;2023-06-22T07:37:55;23.67;;;11.97;;
34783;SDS011;20998;51.388;7.032;2023-06-22T07:40:21;15.53;;;11.60;;
34783;SDS011;20998;51.388;7.032;2023-06-22T07:42:47;17.10;;;12.23;;
34783;SDS011;20998;51.388;7.032;2023-06-22T07:45:17;18.60;;;11.57;;
34783;SDS011;20998;51.388;7.032;2023-06-22T07:47:43;17.87;;;11.33;;
34783;SDS011;20998;51.388;7.032;2023-06-22T07:50:09;18.83;;;11.73;;
34783;SDS011;20998;51.388;7.032;2023-06-22T07:52:35;20.93;;;11.60;;
34783;SDS011;20998;51.388;7.032;2023-06-22T07:55:01;14.97;;;10.90;;
34783;SDS011;20998;51.388;7.032;2023-06-22T07:57:27;18.63;;;11.53;;
34783;SDS011;20998;51.388;7.032;2023-06-22T07:59:58;17.43;;;12.67;;
34783;SDS011;20998;51.388;7.032;2023-06-22T08:02:25;17.20;;;12.10;;
34783;SDS011;20998;51.388;7.032;2023-06-22T08:04:51;20.63;;;11.83;;
34783;SDS011;20998;51.388;7.032;2023-06-22T08:07:17;17.10;;;12.33;;
34783;SDS011;20998;51.388;7.032;2023-06-22T08:09:46;18.10;;;12.57;;
34783;SDS011;20998;51.388;7.032;2023-06-22T08:12:13;19.00;;;12.67;;
34783;SDS011;20998;51.388;7.032;2023-06-22T08:14:39;18.07;;;12.23;;
34783;SDS011;20998;51.388;7.032;2023-06-22T08:17:05;18.40;;;12.23;;
34783;SDS011;20998;51.388;7.032;2023-06-22T08:19:31;18.70;;;12.67;;
34783;SDS011;20998;51.388;7.032;2023-06-22T08:21:57;19.37;;;13.10;;
34783;SDS011;20998;51.388;7.032;2023-06-22T08:24:23;17.90;;;12.33;;
34783;SDS011;20998;51.388;7.032;2023-06-22T08:26:50;21.40;;;13.27;;
34783;SDS011;20998;51.388;7.032;2023-06-22T08:29:16;20.17;;;13.20;;
34783;SDS011;20998;51.388;7.032;2023-06-22T08:31:42;19.10;;;12.93;;
34783;SDS011;20998;51.388;7.032;2023-06-22T08:34:08;17.03;;;12.80;;
34783;SDS011;20998;51.388;7.032;2023-06-22T08:36:34;18.00;;;13.27;;
34783;SDS011;20998;51.388;7.032;2023-06-22T08:39:06;17.83;;;13.63;;
34783;SDS011;20998;51.388;7.032;2023-06-22T08:41:33;21.57;;;13.67;;
34783;SDS011;20998;51.388;7.032;2023-06-22T08:43:59;20.03;;;13.60;;
34783;SDS011;20998;51.388;7.032;2023-06-22T08:46:24;21.50;;;13.30;;
34783;SDS011;20998;51.388;7.032;2023-06-22T08:48:55;21.37;;;13.17;;
34783;SDS011;20998;51.388;7.032;2023-06-22T08:51:22;26.20;;;14.60;;
34783;SDS011;20998;51.388;7.032;2023-06-22T08:53:48;33.97;;;13.00;;
34783;SDS011;20998;51.388;7.032;2023-06-22T08:56:14;22.57;;;13.70;;
34783;SDS011;20998;51.388;7.032;2023-06-22T08:58:40;18.60;;;13.10;;
34783;SDS011;20998;51.388;7.032;2023-06-22T09:01:06;20.93;;;13.60;;
34783;SDS011;20998;51.388;7.032;2023-06-22T09:03:32;18.07;;;13.33;;
34783;SDS011;20998;51.388;7.032;2023-06-22T09:06:01;20.13;;;12.67;;
34783;SDS011;20998;51.388;7.032;2023-06-22T09:08:27;26.40;;;12.63;;
34783;SDS011;20998;51.388;7.032;2023-06-22T09:10:53;16.40;;;12.60;;
34783;SDS011;20998;51.388;7.032;2023-06-22T09:13:19;19.07;;;12.27;;
34783;SDS011;20998;51.388;7.032;2023-06-22T09:15:45;16.90;;;11.30;;
34783;SDS011;20998;51.388;7.032;2023-06-22T09:18:11;18.13;;;11.37;;
34783;SDS011;20998;51.388;7.032;2023-06-22T09:20:38;15.77;;;11.43;;
34783;SDS011;20998;51.388;7.032;2023-06-22T09:23:03;14.80;;;11.02;;
34783;SDS011;20998;51.388;7.032;2023-06-22T09:25:29;15.43;;;10.38;;
34783;SDS011;20998;51.388;7.032;2023-06-22T09:27:54;13.20;;;10.02;;
34783;SDS011;20998;51.388;7.032;2023-06-22T09:30:21;13.63;;;9.95;;
34783;SDS011;20998;51.388;7.032;2023-06-22T09:32:47;15.48;;;10.13;;
34783;SDS011;20998;51.388;7.032;2023-06-22T09:35:12;14.38;;;9.68;;
34783;SDS011;20998;51.388;7.032;2023-06-22T09:37:39;12.40;;;9.40;;
34783;SDS011;20998;51.388;7.032;2023-06-22T09:40:06;15.27;;;9.43;;
34783;SDS011;20998;51.388;7.032;2023-06-22T09:42:37;18.08;;;9.40;;
34783;SDS011;20998;51.388;7.032;2023-06-22T09:45:03;11.77;;;9.18;;
34783;SDS011;20998;51.388;7.032;2023-06-22T09:47:30;14.30;;;8.70;;
34783;SDS011;20998;51.388;7.032;2023-06-22T09:49:56;13.07;;;9.00;;
34783;SDS011;20998;51.388;7.032;2023-06-22T09:52:21;12.70;;;9.18;;
34783;SDS011;20998;51.388;7.032;2023-06-22T09:54:47;11.02;;;8.38;;
34783;SDS011;20998;51.388;7.032;2023-06-22T09:57:13;15.20;;;9.13;;
34783;SDS011;20998;51.388;7.032;2023-06-22T09:59:39;10.25;;;7.95;;
34783;SDS011;20998;51.388;7.032;2023-06-22T10:02:05;11.77;;;8.07;;
34783;SDS011;20998;51.388;7.032;2023-06-22T10:04:31;14.85;;;8.82;;
34783;SDS011;20998;51.388;7.032;2023-06-22T10:06:57;13.90;;;10.55;;
34783;SDS011;20998;51.388;7.032;2023-06-22T10:09:23;15.20;;;8.90;;
34783;SDS011;20998;51.388;7.032;2023-06-22T10:11:49;14.48;;;10.57;;
34783;SDS011;20998;51.388;7.032;2023-06-22T10:14:15;12.82;;;8.88;;
34783;SDS011;20998;51.388;7.032;2023-06-22T10:16:41;13.45;;;9.50;;
34783;SDS011;20998;51.388;7.032;2023-06-22T10:19:07;16.15;;;9.20;;
34783;SDS011;20998;51.388;7.032;2023-06-22T10:21:34;12.13;;;8.85;;
34783;SDS011;20998;51.388;7.032;2023-06-22T10:23:59;10.88;;;8.13;;
34783;SDS011;20998;51.388;7.032;2023-06-22T10:26:31;11.70;;;8.43;;
34783;SDS011;20998;51.388;7.032;2023-06-22T10:28:58;11.48;;;8.82;;
34783;SDS011;20998;51.388;7.032;2023-06-22T10:31:24;11.45;;;8.48;;
34783;SDS011;20998;51.388;7.032;2023-06-22T10:33:50;12.63;;;9.52;;
34783;SDS011;20998;51.388;7.032;2023-06-22T10:36:16;12.82;;;8.50;;
34783;SDS011;20998;51.388;7.032;2023-06-22T10:38:42;13.93;;;8.85;;
34783;SDS011;20998;51.388;7.032;2023-06-22T10:41:08;11.60;;;8.85;;
34783;SDS011;20998;51.388;7.032;2023-06-22T10:43:33;16.13;;;9.32;;
34783;SDS011;20998;51.388;7.032;2023-06-22T10:45:59;14.25;;;9.02;;
34783;SDS011;20998;51.388;7.032;2023-06-22T10:48:25;12.55;;;9.60;;
34783;SDS011;20998;51.388;7.032;2023-06-22T10:50:51;12.60;;;10.00;;
34783;SDS011;20998;51.388;7.032;2023-06-22T10:53:18;15.63;;;9.57;;
34783;SDS011;20998;51.388;7.032;2023-06-22T10:55:44;19.13;;;9.80;;
34783;SDS011;20998;51.388;7.032;2023-06-22T10:58:09;14.40;;;9.55;;
34783;SDS011;20998;51.388;7.032;2023-06-22T11:00:35;12.63;;;9.27;;
34783;SDS011;20998;51.388;7.032;2023-06-22T11:03:02;11.30;;;8.68;;
34783;SDS011;20998;51.388;7.032;2023-06-22T11:05:27;12.68;;;8.80;;
34783;SDS011;20998;51.388;7.032;2023-06-22T11:07:53;15.27;;;10.55;;
34783;SDS011;20998;51.388;7.032;2023-06-22T11:10:19;16.20;;;9.77;;
34783;SDS011;20998;51.388;7.032;2023-06-22T11:12:45;18.48;;;10.10;;
34783;SDS011;20998;51.388;7.032;2023-06-22T11:15:11;12.90;;;9.32;;
34783;SDS011;20998;51.388;7.032;2023-06-22T11:17:37;13.90;;;10.13;;
34783;SDS011;20998;51.388;7.032;2023-06-22T11:20:03;14.95;;;10.55;;
34783;SDS011;20998;51.388;7.032;2023-06-22T11:22:35;21.00;;;11.52;;
34783;SDS011;20998;51.388;7.032;2023-06-22T11:25:01;15.45;;;10.50;;
34783;SDS011;20998;51.388;7.032;2023-06-22T11:27:27;15.75;;;10.65;;
34783;SDS011;20998;51.388;7.032;2023-06-22T11:29:53;15.85;;;11.48;;
34783;SDS011;20998;51.388;7.032;2023-06-22T11:32:19;17.63;;;12.77;;
34783;SDS011;20998;51.388;7.032;2023-06-22T11:34:45;18.38;;;12.55;;
34783;SDS011;20998;51.388;7.032;2023-06-22T11:37:11;16.25;;;11.30;;
34783;SDS011;20998;51.388;7.032;2023-06-22T11:39:37;22.63;;;12.27;;
34783;SDS011;20998;51.388;7.032;2023-06-22T11:42:03;21.42;;;13.80;;
34783;SDS011;20998;51.388;7.032;2023-06-22T11:44:28;19.55;;;13.15;;
34783;SDS011;20998;51.388;7.032;2023-06-22T11:46:54;17.67;;;13.15;;
34783;SDS011;20998;51.388;7.032;2023-06-22T11:49:20;26.85;;;13.95;;
34783;SDS011;20998;51.388;7.032;2023-06-22T11:51:46;21.40;;;13.60;;
34783;SDS011;20998;51.388;7.032;2023-06-22T11:54:12;18.75;;;12.98;;
34783;SDS011;20998;51.388;7.032;2023-06-22T11:56:38;19.17;;;12.93;;
34783;SDS011;20998;51.388;7.032;2023-06-22T11:59:04;21.15;;;14.02;;
34783;SDS011;20998;51.388;7.032;2023-06-22T12:01:30;22.30;;;13.93;;
34783;SDS011;20998;51.388;7.032;2023-06-22T12:03:58;19.48;;;13.35;;
34783;SDS011;20998;51.388;7.032;2023-06-22T12:06:23;20.92;;;14.13;;
34783;SDS011;20998;51.388;7.032;2023-06-22T12:08:49;25.10;;;15.02;;
34783;SDS011;20998;51.388;7.032;2023-06-22T12:11:15;21.42;;;13.50;;
34783;SDS011;20998;51.388;7.032;2023-06-22T12:13:41;19.73;;;12.55;;
34783;SDS011;20998;51.388;7.032;2023-06-22T12:16:06;16.90;;;12.05;;
34783;SDS011;20998;51.388;7.032;2023-06-22T12:18:32;19.13;;;12.95;;
34783;SDS011;20998;51.388;7.032;2023-06-22T12:20:58;21.35;;;12.98;;
34783;SDS011;20998;51.388;7.032;2023-06-22T12:23:24;18.03;;;12.83;;
34783;SDS011;20998;51.388;7.032;2023-06-22T12:25:50;21.88;;;13.38;;
34783;SDS011;20998;51.388;7.032;2023-06-22T12:28:16;19.60;;;13.05;;
34783;SDS011;20998;51.388;7.032;2023-06-22T12:30:42;18.50;;;12.80;;
34783;SDS011;20998;51.388;7.032;2023-06-22T12:33:08;22.43;;;14.33;;
34783;SDS011;20998;51.388;7.032;2023-06-22T12:35:34;25.80;;;15.80;;
34783;SDS011;20998;51.388;7.032;2023-06-22T12:38:00;25.03;;;15.10;;
34783;SDS011;20998;51.388;7.032;2023-06-22T12:40:25;22.83;;;14.87;;
34783;SDS011;20998;51.388;7.032;2023-06-22T12:42:51;26.07;;;15.73;;
34783;SDS011;20998;51.388;7.032;2023-06-22T12:45:17;29.50;;;15.50;;
34783;SDS011;20998;51.388;7.032;2023-06-22T12:47:43;22.63;;;15.33;;
34783;SDS011;20998;51.388;7.032;2023-06-22T12:50:09;40.93;;;17.63;;
34783;SDS011;20998;51.388;7.032;2023-06-22T12:52:36;27.90;;;18.13;;
34783;SDS011;20998;51.388;7.032;2023-06-22T12:55:04;26.90;;;17.83;;
34783;SDS011;20998;51.388;7.032;2023-06-22T12:57:30;25.57;;;17.70;;
34783;SDS011;20998;51.388;7.032;2023-06-22T12:59:56;26.90;;;18.07;;
34783;SDS011;20998;51.388;7.032;2023-06-22T13:02:23;26.40;;;19.17;;
34783;SDS011;20998;51.388;7.032;2023-06-22T13:04:49;29.70;;;18.80;;
34783;SDS011;20998;51.388;7.032;2023-06-22T13:07:14;31.40;;;19.37;;
34783;SDS011;20998;51.388;7.032;2023-06-22T13:09:40;35.30;;;19.33;;
34783;SDS011;20998;51.388;7.032;2023-06-22T13:12:06;25.70;;;17.43;;
34783;SDS011;20998;51.388;7.032;2023-06-22T13:14:32;33.47;;;18.57;;
34783;SDS011;20998;51.388;7.032;2023-06-22T13:16:58;27.83;;;17.70;;
34783;SDS011;20998;51.388;7.032;2023-06-22T13:19:24;29.87;;;18.80;;
34783;SDS011;20998;51.388;7.032;2023-06-22T13:21:52;23.23;;;15.37;;
34783;SDS011;20998;51.388;7.032;2023-06-22T13:24:18;24.00;;;15.07;;
34783;SDS011;20998;51.388;7.032;2023-06-22T13:26:44;20.07;;;13.37;;
34783;SDS011;20998;51.388;7.032;2023-06-22T13:29:10;22.00;;;13.70;;
34783;SDS011;20998;51.388;7.032;2023-06-22T13:31:37;21.37;;;13.10;;
34783;SDS011;20998;51.388;7.032;2023-06-22T13:34:02;18.70;;;13.10;;
34783;SDS011;20998;51.388;7.032;2023-06-22T13:36:28;21.23;;;13.83;;
34783;SDS011;20998;51.388;7.032;2023-06-22T13:38:55;20.53;;;12.37;;
34783;SDS011;20998;51.388;7.032;2023-06-22T13:41:21;19.60;;;13.00;;
34783;SDS011;20998;51.388;7.032;2023-06-22T13:43:47;28.17;;;13.57;;
34783;SDS011;20998;51.388;7.032;2023-06-22T13:46:13;16.33;;;11.73;;
34783;SDS011;20998;51.388;7.032;2023-06-22T13:48:38;18.57;;;12.07;;
34783;SDS011;20998;51.388;7.032;2023-06-22T13:51:04;15.77;;;11.87;;
34783;SDS011;20998;51.388;7.032;2023-06-22T13:53:31;16.27;;;11.47;;
34783;SDS011;20998;51.388;7.032;2023-06-22T13:55:56;17.83;;;11.17;;
34783;SDS011;20998;51.388;7.032;2023-06-22T13:58:22;18.33;;;10.30;;
34783;SDS011;20998;51.388;7.032;2023-06-22T14:00:48;15.80;;;10.23;;
34783;SDS011;20998;51.388;7.032;2023-06-22T14:03:14;17.17;;;10.83;;
34783;SDS011;20998;51.388;7.032;2023-06-22T14:05:43;17.40;;;11.53;;
34783;SDS011;20998;51.388;7.032;2023-06-22T14:08:08;15.50;;;10.10;;
34783;SDS011;20998;51.388;7.032;2023-06-22T14:10:34;13.13;;;9.50;;
34783;SDS011;20998;51.388;7.032;2023-06-22T14:13:00;13.80;;;9.33;;
34783;SDS011;20998;51.388;7.032;2023-06-22T14:15:26;14.37;;;9.37;;
34783;SDS011;20998;51.388;7.032;2023-06-22T14:17:52;16.83;;;11.03;;
34783;SDS011;20998;51.388;7.032;2023-06-22T14:20:18;15.10;;;10.23;;
34783;SDS011;20998;51.388;7.032;2023-06-22T14:22:44;16.23;;;9.23;;
34783;SDS011;20998;51.388;7.032;2023-06-22T14:25:10;16.57;;;9.50;;
34783;SDS011;20998;51.388;7.032;2023-06-22T14:27:36;13.87;;;10.33;;
34783;SDS011;20998;51.388;7.032;2023-06-22T14:30:02;15.47;;;10.07;;